Time;durP1;ratioP1;P1;durP2;ratioP2;P2;SDS_P1;SDS_P2;PMS_P1;PMS_P2;Temp;Humidity;BMP_temperature;BMP_pressure;BME280_temperature;BME280_humidity;BME280_pressure;Samples;Min_cycle;Max_cycle;Signal;HPM_P1;HPM_P2
2021/07/15 00:03:32;;;;;;;3.67;2.12;;;16.40;99.90;;;;;;6722660;88;20235;-76
2021/07/15 00:13:32;;;;;;;2.47;2.10;;;16.30;99.90;;;;;;6721709;88;20621;-77
2021/07/15 00:23:33;;;;;;;4.03;2.20;;;16.40;99.90;;;;;;6720906;88;20214;-77
2021/07/15 00:33:34;;;;;;;3.90;2.37;;;16.40;99.90;;;;;;6720810;88;20588;-77
2021/07/15 00:43:35;;;;;;;5.85;2.75;;;16.10;99.90;;;;;;6718235;88;20317;-78
2021/07/15 00:53:36;;;;;;;2.78;2.47;;;15.90;99.90;;;;;;6718035;88;20296;-77
2021/07/15 01:03:36;;;;;;;3.97;2.55;;;15.70;99.90;;;;;;6721141;88;20197;-77
2021/07/15 01:13:54;;;;;;;4.53;2.45;;;15.70;99.90;;;;;;6722467;88;20190;-79
2021/07/15 01:24:29;;;;;;;4.97;3.22;;;16.00;99.90;;;;;;6721006;88;20214;-78
2021/07/15 01:34:31;;;;;;;6.85;3.08;;;16.10;99.90;;;;;;6720367;88;20186;-77
2021/07/15 01:44:32;;;;;;;6.25;3.33;;;16.10;99.90;;;;;;6722959;88;20188;-77
2021/07/15 01:54:34;;;;;;;5.45;3.70;;;16.10;99.90;;;;;;6722823;88;20192;-77
2021/07/15 02:04:38;;;;;;;8.18;6.00;;;16.10;99.90;;;;;;6722953;88;20214;-77
2021/07/15 02:14:39;;;;;;;7.53;5.43;;;16.00;99.90;;;;;;6722408;88;20686;-74
2021/07/15 02:24:40;;;;;;;6.80;4.72;;;15.90;99.90;;;;;;6706716;88;20209;-78
2021/07/15 02:34:50;;;;;;;7.07;5.15;;;15.70;99.90;;;;;;6717346;88;20218;-76
2021/07/15 02:44:51;;;;;;;11.55;6.03;;;15.90;99.90;;;;;;6710529;88;20306;-77
2021/07/15 02:54:52;;;;;;;9.02;5.80;;;15.70;99.90;;;;;;6710991;88;20198;-76
2021/07/15 03:05:27;;;;;;;7.20;5.57;;;15.50;99.90;;;;;;6713720;88;20194;-77
2021/07/15 03:15:27;;;;;;;7.70;5.73;;;15.40;99.90;;;;;;6711003;88;20277;-76
2021/07/15 03:25:30;;;;;;;6.45;5.40;;;15.40;99.90;;;;;;6715606;88;20471;-77
2021/07/15 03:35:31;;;;;;;7.53;5.57;;;15.30;99.90;;;;;;6712982;88;20197;-77
2021/07/15 03:45:31;;;;;;;8.25;5.40;;;15.60;99.90;;;;;;6712577;88;20202;-77
2021/07/15 03:55:36;;;;;;;7.87;5.78;;;15.70;99.90;;;;;;6713517;88;20681;-77
2021/07/15 04:05:38;;;;;;;7.60;5.80;;;15.80;99.90;;;;;;6714057;88;20388;-77
2021/07/15 04:15:59;;;;;;;7.57;5.10;;;15.90;99.90;;;;;;6714506;88;20650;-77
2021/07/15 04:26:00;;;;;;;8.60;6.28;;;16.00;99.90;;;;;;6708569;88;20653;-77
2021/07/15 04:36:02;;;;;;;10.48;6.68;;;16.20;99.90;;;;;;6711957;88;20317;-77
2021/07/15 04:46:05;;;;;;;8.40;5.57;;;16.20;99.90;;;;;;6718635;88;20598;-77
2021/07/15 04:56:07;;;;;;;8.93;6.55;;;16.30;99.90;;;;;;6721525;88;20181;-77
2021/07/15 05:06:08;;;;;;;10.70;7.00;;;16.50;99.90;;;;;;6709370;88;20267;-76
2021/07/15 05:16:09;;;;;;;11.30;7.07;;;16.70;99.90;;;;;;6716522;88;20318;-76
2021/07/15 05:26:09;;;;;;;9.17;6.83;;;16.90;99.90;;;;;;6719029;88;20328;-76
2021/07/15 05:36:11;;;;;;;9.35;6.40;;;17.10;99.90;;;;;;6716377;88;20487;-77
2021/07/15 05:46:11;;;;;;;5.12;3.08;;;17.50;99.90;;;;;;6718292;88;20186;-81
2021/07/15 05:56:12;;;;;;;6.83;5.07;;;17.70;99.90;;;;;;6719621;88;20232;-77
2021/07/15 06:06:13;;;;;;;7.03;4.60;;;17.60;99.90;;;;;;6722870;88;20499;-77
2021/07/15 06:16:13;;;;;;;7.47;6.07;;;17.80;99.90;;;;;;6709934;88;20280;-78
2021/07/15 06:26:14;;;;;;;10.60;7.50;;;17.90;99.90;;;;;;6715325;88;20226;-76
2021/07/15 06:36:15;;;;;;;11.80;7.10;;;17.90;99.90;;;;;;6711305;88;20711;-77
2021/07/15 06:46:16;;;;;;;8.57;6.72;;;18.10;99.90;;;;;;6714911;88;20182;-76
2021/07/15 06:56:16;;;;;;;7.75;6.07;;;18.40;99.90;;;;;;6710460;88;20182;-76
2021/07/15 07:06:17;;;;;;;10.23;6.03;;;18.90;99.90;;;;;;6713978;88;20232;-78
2021/07/15 07:16:18;;;;;;;9.77;4.87;;;19.00;99.90;;;;;;6712290;88;20719;-78
2021/07/15 07:26:18;;;;;;;4.78;3.92;;;19.40;99.90;;;;;;6715634;88;20682;-76
2021/07/15 07:36:19;;;;;;;5.40;4.22;;;20.40;99.90;;;;;;6714804;88;20217;-77
2021/07/15 07:46:19;;;;;;;6.23;3.50;;;20.70;99.90;;;;;;6712150;88;20364;-77
2021/07/15 07:56:20;;;;;;;6.22;3.00;;;21.00;99.90;;;;;;6715500;88;20230;-78
2021/07/15 08:06:21;;;;;;;3.60;3.20;;;21.20;99.90;;;;;;6714252;88;20312;-77
2021/07/15 08:16:21;;;;;;;4.18;2.90;;;21.50;99.90;;;;;;6706886;88;20182;-77
2021/07/15 08:26:22;;;;;;;9.18;2.67;;;21.80;99.90;;;;;;6713475;88;20237;-77
2021/07/15 08:36:22;;;;;;;5.80;3.00;;;22.20;99.90;;;;;;6724506;88;20716;-78
2021/07/15 08:46:24;;;;;;;2.75;2.00;;;22.40;99.90;;;;;;6733053;88;20318;-77
2021/07/15 08:56:37;;;;;;;2.85;1.80;;;22.80;99.90;;;;;;6726691;88;20206;-77
2021/07/15 09:06:41;;;;;;;2.83;2.57;;;23.10;99.90;;;;;;6714863;88;20311;-76
2021/07/15 09:16:52;;;;;;;2.53;1.90;;;23.70;99.90;;;;;;6717939;88;20182;-78
2021/07/15 09:26:54;;;;;;;2.10;1.70;;;23.90;99.90;;;;;;6707524;88;20736;-77
2021/07/15 09:36:56;;;;;;;1.90;1.52;;;24.80;99.90;;;;;;6712015;88;20222;-78
2021/07/15 09:47:00;;;;;;;3.07;1.43;;;25.30;99.90;;;;;;6721134;88;20626;-77
2021/07/15 09:57:00;;;;;;;1.80;1.20;;;25.00;99.90;;;;;;6722179;88;20207;-78
2021/07/15 10:07:01;;;;;;;3.25;1.15;;;26.20;99.90;;;;;;6699909;88;20197;-78
2021/07/15 10:17:03;;;;;;;6.15;1.20;;;26.90;99.90;;;;;;6708566;88;20181;-78
2021/07/15 10:27:09;;;;;;;18.98;3.17;;;26.40;99.90;;;;;;6721314;88;20321;-77
2021/07/15 10:37:11;;;;;;;5.15;1.33;;;26.20;99.90;;;;;;6718083;88;20255;-77
2021/07/15 10:47:12;;;;;;;2.35;0.80;;;27.10;99.90;;;;;;6712675;88;20190;-77
2021/07/15 10:57:13;;;;;;;2.73;0.90;;;28.20;99.90;;;;;;6706395;88;20200;-76
2021/07/15 11:07:24;;;;;;;1.57;0.80;;;28.50;99.90;;;;;;6716893;88;20675;-76
2021/07/15 11:17:33;;;;;;;2.25;1.50;;;29.20;99.90;;;;;;6718467;88;20198;-76
2021/07/15 11:27:38;;;;;;;2.65;0.95;;;27.60;99.90;;;;;;6714767;88;20272;-76
2021/07/15 11:37:39;;;;;;;5.50;1.62;;;27.10;99.90;;;;;;6714341;88;20237;-76
2021/07/15 11:47:42;;;;;;;14.85;2.92;;;27.00;99.90;;;;;;6705980;88;20190;-76
2021/07/15 11:57:43;;;;;;;6.45;1.60;;;27.30;99.90;;;;;;6716074;88;20210;-76
2021/07/15 12:07:45;;;;;;;1.80;0.83;;;27.60;99.90;;;;;;6709105;88;20313;-77
2021/07/15 12:17:48;;;;;;;1.20;0.90;;;28.20;99.90;;;;;;6716285;88;20767;-76
2021/07/15 12:27:52;;;;;;;2.53;1.10;;;27.20;99.90;;;;;;6705137;88;20227;-76
2021/07/15 12:37:53;;;;;;;3.05;1.40;;;26.90;99.90;;;;;;6710881;88;20247;-76
2021/07/15 12:48:02;;;;;;;1.67;1.05;;;26.60;99.90;;;;;;6712226;88;20186;-76
2021/07/15 12:58:03;;;;;;;1.62;1.00;;;27.10;99.90;;;;;;6710365;88;20693;-76
2021/07/15 13:08:07;;;;;;;1.60;1.10;;;27.30;99.90;;;;;;6710216;88;20264;-76
2021/07/15 13:18:13;;;;;;;1.83;1.10;;;27.00;99.90;;;;;;6712049;88;20162;-76
2021/07/15 13:28:15;;;;;;;4.05;1.12;;;27.00;99.90;;;;;;6717547;88;20193;-77
2021/07/15 13:38:17;;;;;;;3.00;1.40;;;26.50;99.90;;;;;;6712848;88;20260;-76
2021/07/15 13:48:20;;;;;;;4.40;1.48;;;25.90;99.90;;;;;;6714872;88;20824;-77
2021/07/15 13:58:21;;;;;;;2.95;1.40;;;25.40;99.90;;;;;;6718334;88;20905;-77
2021/07/15 14:08:22;;;;;;;2.20;1.80;;;25.50;99.90;;;;;;6717585;88;20267;-76
2021/07/15 14:18:25;;;;;;;3.90;1.98;;;25.10;99.90;;;;;;6718354;88;20230;-77
2021/07/15 14:28:26;;;;;;;2.70;2.20;;;25.60;99.90;;;;;;6719283;88;20829;-77
2021/07/15 14:38:27;;;;;;;3.25;2.25;;;26.30;99.90;;;;;;6720175;88;20190;-76
2021/07/15 14:48:28;;;;;;;3.47;2.40;;;26.50;99.90;;;;;;6718296;88;20964;-76
2021/07/15 14:58:28;;;;;;;3.67;2.75;;;26.30;99.90;;;;;;6710941;88;20198;-77
2021/07/15 15:08:29;;;;;;;3.20;2.33;;;26.20;99.90;;;;;;6720160;88;20203;-76
2021/07/15 15:18:29;;;;;;;3.40;2.83;;;26.50;99.90;;;;;;6717958;88;20197;-77
2021/07/15 15:28:30;;;;;;;5.47;2.97;;;27.30;99.90;;;;;;6713814;88;20331;-76
2021/07/15 15:38:31;;;;;;;5.85;3.20;;;27.20;99.90;;;;;;6717252;88;20230;-77
2021/07/15 15:48:31;;;;;;;4.70;3.45;;;27.10;99.90;;;;;;6716944;88;20218;-76
2021/07/15 15:58:32;;;;;;;5.25;3.95;;;26.80;99.90;;;;;;6717858;88;20204;-76
2021/07/15 16:08:33;;;;;;;6.33;4.00;;;26.10;99.90;;;;;;6716555;88;20383;-76
2021/07/15 16:18:33;;;;;;;4.80;3.97;;;25.80;99.90;;;;;;6715761;88;20238;-76
2021/07/15 16:28:34;;;;;;;6.00;4.70;;;25.20;99.90;;;;;;6716581;88;20197;-76
2021/07/15 16:38:35;;;;;;;6.45;4.90;;;25.00;99.90;;;;;;6714301;88;20692;-76
2021/07/15 16:48:36;;;;;;;8.30;5.07;;;24.90;99.90;;;;;;6720420;88;20224;-76
2021/07/15 16:58:37;;;;;;;6.82;5.25;;;24.90;99.90;;;;;;6718340;88;20316;-76
2021/07/15 17:08:37;;;;;;;6.20;4.87;;;24.70;99.90;;;;;;6720862;88;20218;-76
2021/07/15 17:18:38;;;;;;;6.97;5.60;;;24.20;99.90;;;;;;6720351;88;20256;-76
2021/07/15 17:28:39;;;;;;;10.80;6.57;;;24.00;99.90;;;;;;6718622;88;20510;-76
2021/07/15 17:38:39;;;;;;;15.68;8.10;;;23.70;99.90;;;;;;6718843;88;20288;-76
2021/07/15 17:48:40;;;;;;;12.18;8.60;;;23.40;99.90;;;;;;6719523;88;20214;-77
2021/07/15 17:58:40;;;;;;;12.52;9.07;;;23.20;99.90;;;;;;6721223;88;20225;-76
2021/07/15 18:08:44;;;;;;;13.88;9.43;;;23.20;99.90;;;;;;6722097;88;20621;-78
2021/07/15 18:18:44;;;;;;;14.00;10.80;;;22.90;99.90;;;;;;6726329;88;20335;-78
2021/07/15 18:28:45;;;;;;;15.32;11.75;;;22.60;99.90;;;;;;6730030;88;20282;-78
2021/07/15 18:38:45;;;;;;;22.03;15.00;;;22.50;99.90;;;;;;6720706;88;20333;-78
2021/07/15 18:48:46;;;;;;;25.02;18.08;;;22.00;99.90;;;;;;6722264;88;20279;-79
2021/07/15 18:58:46;;;;;;;26.37;18.52;;;21.70;99.90;;;;;;6727498;88;20189;-79
2021/07/15 19:08:47;;;;;;;28.15;20.85;;;21.70;99.90;;;;;;6726355;88;20204;-78
2021/07/15 19:18:48;;;;;;;31.20;21.70;;;21.40;99.90;;;;;;6727030;88;20228;-79
2021/07/15 19:28:48;;;;;;;36.40;22.47;;;21.30;99.90;;;;;;6727921;88;20531;-80
2021/07/15 19:38:50;;;;;;;36.47;24.33;;;21.10;99.90;;;;;;6726665;88;21018;-79
2021/07/15 19:48:51;;;;;;;40.10;24.10;;;20.90;99.90;;;;;;6725762;88;20691;-78
2021/07/15 19:58:52;;;;;;;46.28;28.62;;;20.80;99.90;;;;;;6717962;88;20199;-79
2021/07/15 20:08:52;;;;;;;46.47;29.30;;;20.70;99.90;;;;;;6725287;88;20211;-79
2021/07/15 20:18:53;;;;;;;42.40;27.13;;;20.60;99.90;;;;;;6737992;88;20659;-79
2021/07/15 20:28:54;;;;;;;46.22;27.98;;;20.60;99.90;;;;;;6736829;88;20860;-79
2021/07/15 20:38:54;;;;;;;38.83;24.70;;;20.50;99.90;;;;;;6737858;88;20201;-78
2021/07/15 20:48:55;;;;;;;44.42;25.20;;;20.60;99.90;;;;;;6741154;88;20229;-79
2021/07/15 20:58:56;;;;;;;42.80;25.20;;;20.60;99.90;;;;;;6741195;88;20188;-80
2021/07/15 21:08:56;;;;;;;58.40;32.63;;;20.50;99.90;;;;;;6739847;88;20688;-78
2021/07/15 21:18:57;;;;;;;58.97;32.90;;;20.40;99.90;;;;;;6739370;88;20678;-78
2021/07/15 21:28:58;;;;;;;56.30;31.30;;;20.40;99.90;;;;;;6739940;88;20204;-79
2021/07/15 21:38:58;;;;;;;50.63;29.42;;;20.30;99.90;;;;;;6738935;88;20224;-79
2021/07/15 21:48:59;;;;;;;61.95;30.23;;;20.30;99.90;;;;;;6736872;88;20214;-79
2021/07/15 21:58:59;;;;;;;70.03;33.50;;;20.00;99.90;;;;;;6736675;88;20643;-79
2021/07/15 22:09:00;;;;;;;63.92;31.83;;;19.80;99.90;;;;;;6737608;88;20389;-77
2021/07/15 22:19:00;;;;;;;72.65;34.00;;;19.70;99.90;;;;;;6729942;88;20725;-79
2021/07/15 22:29:01;;;;;;;60.63;31.65;;;19.70;99.90;;;;;;6729481;88;20239;-78
2021/07/15 22:39:04;;;;;;;55.00;29.40;;;19.70;99.90;;;;;;6731492;88;20205;-78
2021/07/15 22:49:05;;;;;;;58.10;28.55;;;19.60;99.90;;;;;;6733580;88;20201;-78
2021/07/15 22:59:05;;;;;;;51.13;26.80;;;19.70;99.90;;;;;;6731354;88;20234;-78
2021/07/15 23:09:06;;;;;;;48.40;25.65;;;19.60;99.90;;;;;;6732008;88;20204;-79
2021/07/15 23:19:07;;;;;;;49.78;27.75;;;19.60;99.90;;;;;;6732700;88;20175;-78
2021/07/15 23:29:07;;;;;;;54.67;30.23;;;19.70;99.90;;;;;;6730818;88;20197;-78
2021/07/15 23:39:08;;;;;;;57.40;31.25;;;19.60;99.90;;;;;;6733189;88;20202;-79
2021/07/15 23:49:08;;;;;;;60.12;29.67;;;19.60;99.90;;;;;;6728970;88;20707;-78
2021/07/15 23:59:09;;;;;;;55.28;29.92;;;19.50;99.90;;;;;;6734038;88;20212;-79
